createdAt,value
2019-01-08T00:01:13.558Z,9.30
2019-01-08T00:03:54.225Z,9.20
2019-01-08T00:18:58.418Z,8.90
2019-01-08T00:21:39.731Z,8.70
2019-01-08T00:24:20.401Z,8.60
2019-01-08T00:27:00.947Z,8.50
2019-01-08T00:29:42.291Z,8.50
2019-01-08T00:32:23.339Z,8.40
2019-01-08T00:35:04.104Z,8.50
2019-01-08T00:37:44.655Z,8.40
2019-01-08T00:40:26.743Z,8.30
2019-01-08T00:43:08.265Z,8.40
2019-01-08T00:51:49.161Z,8.40
2019-01-08T00:57:12.420Z,8.30
2019-01-08T01:03:06.245Z,8.20
2019-01-08T01:05:47.340Z,8.20
2019-01-08T01:08:28.052Z,8.10
2019-01-08T01:11:09.015Z,8.10
2019-01-08T01:13:50.519Z,8.10
2019-01-08T01:16:32.019Z,8.00
2019-01-08T01:19:12.871Z,8.00
2019-01-08T01:21:54.027Z,7.90
2019-01-08T01:24:35.461Z,7.90
2019-01-08T01:27:16.961Z,7.80
2019-01-08T01:29:58.539Z,7.80
2019-01-08T01:32:39.975Z,7.80
2019-01-08T01:35:21.613Z,7.70
2019-01-08T01:38:02.949Z,7.70
2019-01-08T01:40:43.833Z,7.70
2019-01-08T01:43:25.191Z,7.60
2019-01-08T01:46:06.817Z,7.60
2019-01-08T01:48:48.280Z,7.60
2019-01-08T01:51:27.956Z,7.50
2019-01-08T01:54:16.392Z,7.40
2019-01-08T01:57:04.859Z,7.40
2019-01-08T01:59:53.565Z,7.40
2019-01-08T02:02:35.113Z,7.40
2019-01-08T02:05:14.583Z,7.30
2019-01-08T02:07:55.645Z,7.30
2019-01-08T02:10:36.187Z,7.30
2019-01-08T02:13:17.677Z,7.30
2019-01-08T02:15:59.433Z,7.20
2019-01-08T02:18:40.545Z,7.20
2019-01-08T02:24:03.259Z,7.20
2019-01-08T02:26:44.637Z,7.20
2019-01-08T02:29:25.380Z,7.10
2019-01-08T02:32:10.956Z,7.10
2019-01-08T02:34:52.709Z,7.00
2019-01-08T02:37:33.406Z,7.10
2019-01-08T02:40:14.135Z,7.00
2019-01-08T02:42:55.433Z,7.00
2019-01-08T02:45:36.713Z,7.00
2019-01-08T02:48:18.194Z,7.00
2019-01-08T02:50:58.940Z,7.00
2019-01-08T02:53:40.170Z,7.00
2019-01-08T02:56:21.793Z,7.00
2019-01-08T02:59:02.415Z,7.00
2019-01-08T03:04:29.511Z,7.10
2019-01-08T03:07:10.715Z,7.10
2019-01-08T03:09:51.401Z,7.10
2019-01-08T03:12:32.753Z,7.00
2019-01-08T03:15:13.649Z,7.10
2019-01-08T03:17:54.889Z,7.10
2019-01-08T03:20:35.907Z,7.20
2019-01-08T03:23:17.323Z,7.20
2019-01-08T03:25:58.917Z,7.20
2019-01-08T03:28:39.533Z,7.10
2019-01-08T03:31:20.248Z,7.20
2019-01-08T03:34:01.639Z,7.10
2019-01-08T03:36:40.997Z,7.10
2019-01-08T03:39:29.725Z,7.10
2019-01-08T03:42:10.703Z,7.10
2019-01-08T03:44:52.351Z,7.10
2019-01-08T03:47:33.753Z,7.10
2019-01-08T03:50:15.349Z,7.10
2019-01-08T03:52:56.709Z,7.00
2019-01-08T03:55:26.192Z,7.00
2019-01-08T03:57:55.628Z,7.00
2019-01-08T04:00:44.099Z,7.00
2019-01-08T04:03:32.435Z,6.90
2019-01-08T04:06:01.857Z,7.00
2019-01-08T04:08:50.307Z,7.00
2019-01-08T04:11:31.301Z,7.00
2019-01-08T04:14:12.634Z,7.10
2019-01-08T04:16:53.665Z,7.00
2019-01-08T04:19:35.188Z,7.00
2019-01-08T04:22:15.780Z,6.90
2019-01-08T04:24:57.590Z,7.00
2019-01-08T04:27:38.307Z,7.00
2019-01-08T04:30:18.921Z,7.00
2019-01-08T04:33:00.387Z,7.00
2019-01-08T04:35:41.091Z,7.00
2019-01-08T04:38:21.931Z,7.00
2019-01-08T04:46:38.755Z,6.90
2019-01-08T04:57:57.959Z,6.90
2019-01-08T05:03:21.123Z,7.00
2019-01-08T05:08:43.869Z,6.70
2019-01-08T05:11:24.913Z,6.60
2019-01-08T05:14:06.400Z,6.60
2019-01-08T05:16:47.705Z,6.60
2019-01-08T05:19:28.563Z,6.50
2019-01-08T05:22:09.774Z,6.40
2019-01-08T05:24:50.477Z,6.40
2019-01-08T05:27:30.023Z,6.40
2019-01-08T05:30:11.037Z,6.50
2019-01-08T05:32:51.653Z,6.50
2019-01-08T05:35:32.305Z,6.40
2019-01-08T05:38:13.666Z,6.50
2019-01-08T05:40:55.019Z,6.50
2019-01-08T05:43:35.713Z,6.60
2019-01-08T05:46:17.292Z,6.60
2019-01-08T05:51:40.780Z,6.70
2019-01-08T05:54:22.252Z,6.80
2019-01-08T05:57:03.745Z,6.80
2019-01-08T05:59:45.277Z,6.80
2019-01-08T06:02:26.063Z,6.80
2019-01-08T06:05:07.406Z,6.80
2019-01-08T06:07:48.977Z,6.90
2019-01-08T06:10:30.510Z,6.90
2019-01-08T06:13:12.039Z,6.90
2019-01-08T06:15:53.228Z,6.90
2019-01-08T06:18:34.691Z,7.00
2019-01-08T06:27:27.049Z,7.30
2019-01-08T06:30:08.390Z,7.20
2019-01-08T06:32:50.467Z,7.20
2019-01-08T06:38:15.257Z,7.40
2019-01-08T06:40:57.748Z,7.40
2019-01-08T06:43:38.280Z,7.40
2019-01-08T06:46:18.999Z,7.40
2019-01-08T06:49:00.151Z,7.40
2019-01-08T06:51:48.576Z,7.40
2019-01-08T06:54:29.990Z,7.30
2019-01-08T06:57:09.519Z,7.20
2019-01-08T06:59:50.732Z,6.90
2019-01-08T07:05:12.462Z,6.50
2019-01-08T07:08:01.843Z,6.40
2019-01-08T07:10:50.283Z,6.20
2019-01-08T07:13:30.874Z,6.10
2019-01-08T07:16:11.733Z,6.20
2019-01-08T07:18:51.273Z,6.10
2019-01-08T07:21:32.999Z,6.10
2019-01-08T07:24:14.553Z,6.10
2019-01-08T07:26:55.313Z,6.20
2019-01-08T07:32:18.617Z,6.20
2019-01-08T07:34:59.821Z,6.20
2019-01-08T07:37:40.494Z,6.20
2019-01-08T07:40:21.009Z,6.20
2019-01-08T07:43:04.725Z,6.20
2019-01-08T07:45:45.548Z,6.20
2019-01-08T07:48:26.483Z,6.10
2019-01-08T07:51:08.032Z,6.20
2019-01-08T07:53:49.326Z,6.10
2019-01-08T07:56:29.858Z,6.10
2019-01-08T07:59:11.565Z,6.00
2019-01-08T08:01:52.427Z,6.10
2019-01-08T08:04:34.181Z,6.20
2019-01-08T08:07:15.343Z,6.20
2019-01-08T08:09:44.795Z,6.30
2019-01-08T08:12:33.104Z,6.40
2019-01-08T08:15:21.723Z,6.40
2019-01-08T08:18:02.980Z,6.40
2019-01-08T08:20:44.340Z,6.40
2019-01-08T08:23:25.756Z,6.50
2019-01-08T08:26:06.671Z,6.50
2019-01-08T08:28:48.556Z,6.70
2019-01-08T08:31:29.402Z,6.70
2019-01-08T08:34:10.675Z,6.70
2019-01-08T08:39:33.333Z,6.90
2019-01-08T08:42:14.721Z,7.10
2019-01-08T08:47:52.208Z,7.20
2019-01-08T08:50:35.300Z,7.20
2019-01-08T08:53:15.933Z,7.20
2019-01-08T08:55:56.664Z,7.20
2019-01-08T08:58:38.014Z,7.30
2019-01-08T09:01:18.751Z,7.40
2019-01-08T09:03:58.369Z,7.30
2019-01-08T09:09:48.421Z,7.30
2019-01-08T09:12:29.416Z,7.20
2019-01-08T09:15:10.150Z,7.10
2019-01-08T09:17:51.219Z,7.20
2019-01-08T09:20:32.518Z,7.20
2019-01-08T09:23:13.649Z,7.30
2019-01-08T09:25:54.675Z,7.30
2019-01-08T09:28:36.222Z,7.40
2019-01-08T09:31:18.162Z,7.40
2019-01-08T09:33:59.097Z,7.40
2019-01-08T09:36:39.729Z,7.50
2019-01-08T09:39:21.436Z,7.60
2019-01-08T09:42:03.924Z,7.70
2019-01-08T09:44:45.153Z,7.70
2019-01-08T09:47:27.020Z,7.80
2019-01-08T09:50:08.303Z,7.90
2019-01-08T09:52:49.373Z,7.90
2019-01-08T09:55:30.921Z,7.90
2019-01-08T09:58:12.780Z,7.90
2019-01-08T10:00:53.843Z,7.90
2019-01-08T10:03:35.149Z,7.90
2019-01-08T10:08:57.923Z,8.00
2019-01-08T10:11:37.258Z,8.00
2019-01-08T10:14:18.069Z,8.00
2019-01-08T10:16:59.012Z,8.00
2019-01-08T10:19:39.942Z,7.90
2019-01-08T10:22:21.006Z,8.00
2019-01-08T10:25:02.259Z,8.00
2019-01-08T10:27:43.589Z,8.00
2019-01-08T10:30:24.931Z,8.10
2019-01-08T10:35:48.640Z,8.10
2019-01-08T10:38:30.029Z,8.10
2019-01-08T10:41:11.485Z,8.00
2019-01-08T10:43:51.132Z,7.80
2019-01-08T10:46:37.442Z,7.60
2019-01-08T10:54:44.101Z,7.50
2019-01-08T10:57:25.371Z,7.40
2019-01-08T10:59:55.131Z,7.40
2019-01-08T11:02:43.545Z,7.50
2019-01-08T11:05:25.867Z,7.50
2019-01-08T11:13:39.769Z,7.70
2019-01-08T11:16:28.089Z,7.80
2019-01-08T11:19:09.501Z,7.90
2019-01-08T11:24:32.401Z,8.00
2019-01-08T11:27:13.782Z,8.10
2019-01-08T11:29:54.571Z,8.10
2019-01-08T11:35:25.164Z,8.10
2019-01-08T11:43:40.505Z,8.20
2019-01-08T11:46:36.484Z,8.20
2019-01-08T11:49:06.729Z,8.30
2019-01-08T12:04:18.345Z,8.40
2019-01-08T12:10:09.553Z,8.50
2019-01-08T12:15:39.112Z,8.30
2019-01-08T12:21:22.582Z,7.60
2019-01-08T12:34:01.305Z,6.90
2019-01-08T12:37:13.990Z,7.00
2019-01-08T12:40:16.095Z,7.20
2019-01-08T12:43:12.191Z,7.20
2019-01-08T13:06:49.063Z,8.00
2019-01-08T13:17:54.664Z,7.90
2019-01-08T13:20:46.974Z,8.00
2019-01-08T13:23:32.286Z,8.00
2019-01-08T13:26:15.458Z,8.10
2019-01-08T13:37:24.602Z,8.00
2019-01-08T13:43:14.551Z,8.00
2019-01-08T13:45:44.419Z,8.10
2019-01-08T13:48:35.002Z,8.10
2019-01-08T13:51:26.362Z,8.10
2019-01-08T13:54:08.276Z,8.10
2019-01-08T13:59:35.852Z,8.10
2019-01-08T14:02:17.470Z,8.10
2019-01-08T14:04:58.338Z,8.10
2019-01-08T14:07:30.742Z,8.10
2019-01-08T14:13:14.494Z,8.10
2019-01-08T14:16:04.744Z,8.10
2019-01-08T14:21:31.405Z,8.20
2019-01-08T14:32:46.095Z,8.10
2019-01-08T14:38:18.506Z,8.10
2019-01-08T14:43:40.882Z,7.90
2019-01-08T14:46:29.415Z,7.70
2019-01-08T14:49:10.421Z,7.60
2019-01-08T14:57:34.159Z,7.60
2019-01-08T15:08:37.346Z,7.60
2019-01-08T15:11:18.608Z,7.50
2019-01-08T15:14:00.014Z,7.50
2019-01-08T15:16:41.370Z,7.50
2019-01-08T15:19:23.108Z,7.50
2019-01-08T15:27:37.103Z,7.60
2019-01-08T15:33:17.018Z,7.50
2019-01-08T15:38:42.036Z,7.40
2019-01-08T15:41:27.274Z,7.40
2019-01-08T15:44:28.968Z,7.30
2019-01-08T15:50:27.798Z,7.30
2019-01-08T15:59:28.505Z,7.40
2019-01-08T16:02:00.410Z,7.40
2019-01-08T16:07:45.712Z,7.40
2019-01-08T16:22:48.025Z,7.20
2019-01-08T16:28:26.128Z,7.10
2019-01-08T16:36:42.764Z,7.10
2019-01-08T16:39:24.543Z,7.20
2019-01-08T16:47:57.974Z,7.20
2019-01-08T16:50:47.735Z,7.20
2019-01-08T16:53:29.807Z,7.20
2019-01-08T16:56:10.944Z,7.10
2019-01-08T16:58:55.018Z,7.10
2019-01-08T17:07:18.288Z,7.10
2019-01-08T17:13:00.406Z,7.00
2019-01-08T17:15:41.832Z,7.00
2019-01-08T17:18:23.279Z,6.90
2019-01-08T17:21:02.954Z,7.00
2019-01-08T17:23:44.520Z,7.00
2019-01-08T17:31:53.618Z,7.10
2019-01-08T17:37:26.014Z,7.00
2019-01-08T17:48:47.262Z,7.00
2019-01-08T17:51:35.855Z,7.00
2019-01-08T17:54:18.245Z,7.10
2019-01-08T17:57:00.308Z,7.10
2019-01-08T17:59:41.236Z,7.10
2019-01-08T18:05:04.846Z,7.00
2019-01-08T18:07:45.658Z,6.90
2019-01-08T18:10:26.760Z,6.90
2019-01-08T18:15:50.020Z,6.80
2019-01-08T18:18:32.002Z,6.70
2019-01-08T18:21:14.596Z,6.80
2019-01-08T18:29:43.841Z,6.80
2019-01-08T18:32:23.547Z,6.90
2019-01-08T18:35:04.299Z,6.80
2019-01-08T18:43:27.892Z,6.70
2019-01-08T18:45:59.489Z,6.70
2019-01-08T18:48:48.023Z,6.70
2019-01-08T18:51:36.509Z,6.70
2019-01-08T18:54:18.182Z,6.70
2019-01-08T18:59:41.495Z,6.50
2019-01-08T19:02:22.126Z,6.40
2019-01-08T19:05:03.221Z,6.30
2019-01-08T19:07:44.267Z,6.30
2019-01-08T19:10:25.863Z,6.30
2019-01-08T19:12:55.660Z,6.30
2019-01-08T19:15:25.055Z,6.40
2019-01-08T19:18:13.987Z,6.50
2019-01-08T19:21:03.925Z,6.60
2019-01-08T19:23:44.676Z,6.60
2019-01-08T19:29:12.193Z,6.60
2019-01-08T19:31:53.067Z,6.60
2019-01-08T19:37:22.925Z,6.60
2019-01-08T19:48:33.835Z,6.50
2019-01-08T19:51:15.208Z,6.50
2019-01-08T19:53:56.988Z,6.50
2019-01-08T19:56:38.439Z,6.30
2019-01-08T19:59:19.881Z,6.20
2019-01-08T20:02:00.883Z,6.20
2019-01-08T20:07:24.293Z,6.20
2019-01-08T20:10:05.094Z,6.20
2019-01-08T20:12:46.656Z,6.20
2019-01-08T20:15:27.200Z,6.30
2019-01-08T20:18:09.524Z,6.40
2019-01-08T20:20:50.279Z,6.40
2019-01-08T20:23:33.278Z,6.30
2019-01-08T20:26:14.848Z,6.30
2019-01-08T20:28:55.856Z,6.30
2019-01-08T20:31:37.658Z,6.30
2019-01-08T20:34:26.436Z,6.30
2019-01-08T20:42:39.496Z,6.20
2019-01-08T20:45:12.684Z,6.20
2019-01-08T20:48:02.249Z,6.20
2019-01-08T20:50:51.861Z,6.20
2019-01-08T20:56:20.713Z,6.20
2019-01-08T21:07:20.680Z,6.30
2019-01-08T21:15:34.419Z,6.40
2019-01-08T21:18:16.017Z,6.40
2019-01-08T21:20:57.563Z,6.40
2019-01-08T21:26:21.315Z,6.40
2019-01-08T21:29:02.702Z,6.40
2019-01-08T21:31:44.504Z,6.50
2019-01-08T21:34:25.775Z,6.50
2019-01-08T21:37:07.489Z,6.40
2019-01-08T21:45:21.813Z,6.40
2019-01-08T21:50:55.406Z,6.30
2019-01-08T21:53:36.835Z,6.20
2019-01-08T21:56:18.475Z,6.20
2019-01-08T21:58:59.836Z,6.20
2019-01-08T22:01:41.358Z,6.10
2019-01-08T22:04:23.698Z,6.20
2019-01-08T22:07:05.366Z,6.20
2019-01-08T22:12:31.696Z,5.80
2019-01-08T22:20:51.655Z,5.60
2019-01-08T22:23:36.081Z,5.60
2019-01-08T22:35:01.780Z,5.40
2019-01-08T22:37:36.266Z,5.40
2019-01-08T22:40:17.778Z,5.30
2019-01-08T22:45:40.622Z,5.40
2019-01-08T22:48:23.628Z,5.40
2019-01-08T22:51:04.384Z,5.40
2019-01-08T22:53:39.996Z,5.50
2019-01-08T22:56:10.708Z,5.40
2019-01-08T22:58:59.184Z,5.40
2019-01-08T23:01:40.399Z,5.40
2019-01-08T23:04:22.331Z,5.40
2019-01-08T23:09:59.436Z,5.40
2019-01-08T23:12:41.466Z,5.40
2019-01-08T23:15:23.838Z,5.40
2019-01-08T23:20:47.314Z,5.40
2019-01-08T23:26:10.747Z,5.50
2019-01-08T23:28:51.718Z,5.50
2019-01-08T23:31:33.149Z,5.50
2019-01-08T23:34:18.442Z,5.40
2019-01-08T23:36:59.053Z,5.60
2019-01-08T23:39:40.546Z,5.60
2019-01-08T23:42:21.232Z,5.60
2019-01-08T23:45:04.002Z,5.70
2019-01-08T23:47:44.850Z,5.70
2019-01-08T23:50:26.360Z,5.70
2019-01-08T23:53:07.498Z,5.60
2019-01-08T23:55:50.837Z,5.50
2019-01-08T23:58:31.350Z,5.50
